createdAt,value
2019-03-23T00:00:38.300Z,82.47
2019-03-23T00:03:09.958Z,83.53
2019-03-23T00:05:42.492Z,77.00
2019-03-23T00:08:13.979Z,79.93
2019-03-23T00:10:45.408Z,82.37
2019-03-23T00:13:17.050Z,79.70
2019-03-23T00:15:48.701Z,81.50
2019-03-23T00:18:20.231Z,78.33
2019-03-23T00:20:51.794Z,79.13
2019-03-23T00:23:23.522Z,86.93
2019-03-23T00:25:55.024Z,86.93
2019-03-23T00:28:27.813Z,84.73
2019-03-23T00:30:59.263Z,83.60
2019-03-23T00:33:30.742Z,89.03
2019-03-23T00:36:02.437Z,87.00
2019-03-23T00:38:33.902Z,85.65
2019-03-23T00:41:05.447Z,94.77
2019-03-23T00:43:37.926Z,81.45
2019-03-23T00:46:09.366Z,92.17
2019-03-23T00:48:41.455Z,85.07
2019-03-23T00:51:14.868Z,94.53
2019-03-23T00:53:47.235Z,92.30
2019-03-23T00:56:18.870Z,91.77
2019-03-23T00:58:50.472Z,95.23
2019-03-23T01:01:22.948Z,90.50
2019-03-23T01:03:54.402Z,91.93
2019-03-23T01:06:25.928Z,89.93
2019-03-23T01:08:57.456Z,91.92
2019-03-23T01:11:29.341Z,86.20
2019-03-23T01:14:00.884Z,90.80
2019-03-23T01:16:32.416Z,97.33
2019-03-23T01:19:04.278Z,89.75
2019-03-23T01:21:35.796Z,92.77
2019-03-23T01:24:07.382Z,94.37
2019-03-23T01:26:39.109Z,90.27
2019-03-23T01:29:10.545Z,89.37
2019-03-23T01:31:42.718Z,93.33
2019-03-23T01:34:14.172Z,99.73
2019-03-23T01:36:45.625Z,89.27
2019-03-23T01:39:17.190Z,84.55
2019-03-23T01:41:48.769Z,90.90
2019-03-23T01:44:21.327Z,98.85
2019-03-23T01:46:52.772Z,97.50
2019-03-23T01:49:24.909Z,99.90
2019-03-23T01:51:56.388Z,93.67
2019-03-23T01:54:27.917Z,94.07
2019-03-23T01:56:59.371Z,100.30
2019-03-23T01:59:31.375Z,90.80
2019-03-23T02:02:03.225Z,97.77
2019-03-23T02:04:34.910Z,99.37
2019-03-23T02:07:13.780Z,95.85
2019-03-23T02:09:39.776Z,100.23
2019-03-23T02:12:11.318Z,87.77
2019-03-23T02:14:42.750Z,89.73
2019-03-23T02:17:14.250Z,94.23
2019-03-23T02:19:46.045Z,90.03
2019-03-23T02:22:17.562Z,89.97
2019-03-23T02:24:49.323Z,92.27
2019-03-23T02:27:21.232Z,87.60
2019-03-23T02:29:53.067Z,82.47
2019-03-23T02:32:24.983Z,82.73
2019-03-23T02:34:56.862Z,82.03
2019-03-23T02:37:28.458Z,79.03
2019-03-23T02:40:00.573Z,90.07
2019-03-23T02:42:32.024Z,79.75
2019-03-23T02:45:03.721Z,85.00
2019-03-23T02:47:35.317Z,81.93
2019-03-23T02:50:07.077Z,75.73
2019-03-23T02:52:38.899Z,84.33
2019-03-23T02:55:11.183Z,77.33
2019-03-23T02:57:42.704Z,77.27
2019-03-23T03:00:14.409Z,82.43
2019-03-23T03:02:46.187Z,81.53
2019-03-23T03:05:17.779Z,81.30
2019-03-23T03:07:49.323Z,77.93
2019-03-23T03:10:51.847Z,84.40
2019-03-23T03:13:23.944Z,76.03
2019-03-23T03:15:55.506Z,75.07
2019-03-23T03:18:27.469Z,71.83
2019-03-23T03:20:59.969Z,77.90
2019-03-23T03:23:31.688Z,80.93
2019-03-23T03:26:03.443Z,78.73
2019-03-23T03:28:34.960Z,79.50
2019-03-23T03:31:06.905Z,83.37
2019-03-23T03:33:38.328Z,82.97
2019-03-23T03:36:09.823Z,72.60
2019-03-23T03:38:41.251Z,73.47
2019-03-23T03:41:11.464Z,74.63
2019-03-23T03:43:42.343Z,74.83
2019-03-23T03:46:13.901Z,73.87
2019-03-23T03:48:45.759Z,79.13
2019-03-23T03:51:17.191Z,70.97
2019-03-23T03:53:48.612Z,78.67
2019-03-23T03:56:20.251Z,67.63
2019-03-23T03:58:52.853Z,69.60
2019-03-23T04:01:24.456Z,71.20
2019-03-23T04:03:56.081Z,70.20
2019-03-23T04:06:27.953Z,69.77
2019-03-23T04:08:59.662Z,72.15
2019-03-23T04:11:31.364Z,70.62
2019-03-23T04:14:03.258Z,76.70
2019-03-23T04:16:34.952Z,69.33
2019-03-23T04:19:06.640Z,75.07
2019-03-23T04:21:38.035Z,74.80
2019-03-23T04:24:10.541Z,68.23
2019-03-23T04:26:42.333Z,70.27
2019-03-23T04:29:13.814Z,69.37
2019-03-23T04:31:46.943Z,69.77
2019-03-23T04:34:18.346Z,68.50
2019-03-23T04:36:50.032Z,70.90
2019-03-23T04:39:21.484Z,73.07
2019-03-23T04:41:52.887Z,71.33
2019-03-23T04:44:25.953Z,72.37
2019-03-23T04:46:57.674Z,83.63
2019-03-23T04:49:30.004Z,71.10
2019-03-23T04:52:01.659Z,74.83
2019-03-23T04:54:33.140Z,81.57
2019-03-23T04:57:04.713Z,82.20
2019-03-23T04:59:36.496Z,76.90
2019-03-23T05:02:07.926Z,74.30
2019-03-23T05:04:39.406Z,73.87
2019-03-23T05:07:10.991Z,69.37
2019-03-23T05:09:43.389Z,77.77
2019-03-23T05:12:15.084Z,71.00
2019-03-23T05:14:47.139Z,70.50
2019-03-23T05:17:18.572Z,68.33
2019-03-23T05:19:49.990Z,65.87
2019-03-23T05:22:21.462Z,65.87
2019-03-23T05:24:53.164Z,65.93
2019-03-23T05:27:25.004Z,67.60
2019-03-23T05:29:57.321Z,65.30
2019-03-23T05:32:29.177Z,65.93
2019-03-23T05:35:00.675Z,62.70
2019-03-23T05:37:32.548Z,63.50
2019-03-23T05:40:06.233Z,55.63
2019-03-23T05:42:37.419Z,52.90
2019-03-23T05:45:09.022Z,47.77
2019-03-23T05:47:40.545Z,58.80
2019-03-23T05:50:12.207Z,53.67
2019-03-23T05:52:44.577Z,54.50
2019-03-23T05:55:16.110Z,53.80
2019-03-23T05:57:48.274Z,56.27
2019-03-23T06:00:21.075Z,54.27
2019-03-23T06:02:52.488Z,45.87
2019-03-23T06:05:24.792Z,51.20
2019-03-23T06:07:56.338Z,51.20
2019-03-23T06:10:27.763Z,52.70
2019-03-23T06:12:59.516Z,49.37
2019-03-23T06:15:30.930Z,49.77
2019-03-23T06:18:02.327Z,48.52
2019-03-23T06:20:34.003Z,57.73
2019-03-23T06:23:05.629Z,51.57
2019-03-23T06:25:37.255Z,53.30
2019-03-23T06:28:08.958Z,53.38
2019-03-23T06:30:41.296Z,55.70
2019-03-23T06:33:12.858Z,60.20
2019-03-23T06:35:44.441Z,64.60
2019-03-23T06:38:16.455Z,69.22
2019-03-23T06:40:48.706Z,65.33
2019-03-23T06:43:21.569Z,75.50
2019-03-23T06:49:24.059Z,83.03
2019-03-23T06:51:55.716Z,91.37
2019-03-23T06:54:27.142Z,97.42
2019-03-23T06:56:58.656Z,108.03
2019-03-23T06:59:30.103Z,122.23
2019-03-23T07:02:01.746Z,123.27
2019-03-23T07:04:33.463Z,149.62
2019-03-23T07:07:04.995Z,155.77
2019-03-23T07:09:36.417Z,169.27
2019-03-23T07:12:07.814Z,170.32
2019-03-23T07:14:39.670Z,221.20
2019-03-23T07:17:11.102Z,210.17
2019-03-23T07:19:43.888Z,202.03
2019-03-23T07:22:15.299Z,216.43
2019-03-23T07:24:46.717Z,195.70
2019-03-23T07:27:19.494Z,203.27
2019-03-23T07:29:50.992Z,202.87
2019-03-23T07:32:22.419Z,209.57
2019-03-23T07:34:53.873Z,217.30
2019-03-23T07:37:25.342Z,210.80
2019-03-23T07:39:57.054Z,215.43
2019-03-23T07:42:29.631Z,195.05
2019-03-23T07:45:01.064Z,224.13
2019-03-23T07:47:32.617Z,242.50
2019-03-23T07:50:04.614Z,238.27
2019-03-23T07:52:36.132Z,246.60
2019-03-23T07:55:15.494Z,244.77
2019-03-23T07:57:48.420Z,237.37
2019-03-23T08:00:20.109Z,233.97
2019-03-23T08:02:52.062Z,233.53
2019-03-23T08:05:23.734Z,225.43
2019-03-23T08:07:55.142Z,206.60
2019-03-23T08:10:31.365Z,230.00
2019-03-23T08:13:03.447Z,225.53
2019-03-23T08:15:35.133Z,229.37
2019-03-23T08:18:07.033Z,233.10
2019-03-23T08:20:38.881Z,228.57
2019-03-23T08:23:10.331Z,206.27
2019-03-23T08:25:42.005Z,222.67
2019-03-23T08:28:13.503Z,184.00
2019-03-23T08:30:45.224Z,157.53
2019-03-23T08:33:18.262Z,166.67
2019-03-23T08:35:49.718Z,144.77
2019-03-23T08:38:22.431Z,139.00
2019-03-23T08:40:54.088Z,136.80
2019-03-23T08:43:27.383Z,147.47
2019-03-23T08:46:02.997Z,139.03
2019-03-23T08:48:34.693Z,119.07
2019-03-23T08:51:06.356Z,108.47
2019-03-23T08:53:38.372Z,119.73
2019-03-23T08:56:13.885Z,110.45
2019-03-23T08:58:44.686Z,107.78
2019-03-23T09:01:16.528Z,97.40
2019-03-23T09:03:52.346Z,115.42
2019-03-23T09:06:21.230Z,103.40
2019-03-23T09:08:52.624Z,104.87
2019-03-23T09:11:25.096Z,112.23
2019-03-23T09:13:56.505Z,113.83
2019-03-23T09:16:27.998Z,106.93
2019-03-23T09:18:59.665Z,106.63
2019-03-23T09:21:31.407Z,111.07
2019-03-23T09:24:03.026Z,113.60
2019-03-23T09:26:35.527Z,116.10
2019-03-23T09:29:07.226Z,120.65
2019-03-23T09:31:38.782Z,109.25
2019-03-23T09:34:11.520Z,114.40
2019-03-23T09:36:43.529Z,106.13
2019-03-23T09:39:15.255Z,121.83
2019-03-23T09:41:46.671Z,117.03
2019-03-23T09:44:18.401Z,118.13
2019-03-23T09:46:49.849Z,118.43
2019-03-23T09:49:22.155Z,142.80
2019-03-23T09:51:53.845Z,131.30
2019-03-23T09:54:25.498Z,124.53
2019-03-23T09:56:56.888Z,122.87
2019-03-23T09:59:29.212Z,125.73
2019-03-23T10:02:01.835Z,124.72
2019-03-23T10:04:33.123Z,140.30
2019-03-23T10:07:04.498Z,143.47
2019-03-23T10:09:35.844Z,127.07
2019-03-23T10:12:07.231Z,131.20
2019-03-23T10:14:39.667Z,139.77
2019-03-23T10:17:11.167Z,145.47
2019-03-23T10:19:42.840Z,138.47
2019-03-23T10:22:14.387Z,144.17
2019-03-23T10:24:45.787Z,131.55
2019-03-23T10:27:17.154Z,145.03
2019-03-23T10:29:48.899Z,139.27
2019-03-23T10:32:20.343Z,149.25
2019-03-23T10:34:51.768Z,154.33
2019-03-23T10:37:26.013Z,159.50
2019-03-23T10:39:57.146Z,149.70
2019-03-23T10:42:28.565Z,148.72
2019-03-23T10:44:59.999Z,138.80
2019-03-23T10:47:31.683Z,153.70
2019-03-23T10:50:03.081Z,159.93
2019-03-23T10:52:34.462Z,146.40
2019-03-23T10:55:05.999Z,163.00
2019-03-23T10:57:37.362Z,151.80
2019-03-23T11:00:09.492Z,168.78
2019-03-23T11:02:42.263Z,161.97
2019-03-23T11:05:13.994Z,149.43
2019-03-23T11:07:45.350Z,147.37
2019-03-23T11:10:16.752Z,146.30
2019-03-23T11:12:48.149Z,169.53
2019-03-23T11:15:19.620Z,152.03
2019-03-23T11:17:51.362Z,158.03
2019-03-23T11:20:22.735Z,159.10
2019-03-23T11:22:54.389Z,156.53
2019-03-23T11:25:26.247Z,150.40
2019-03-23T11:27:59.222Z,171.10
2019-03-23T11:30:30.946Z,166.20
2019-03-23T11:33:02.357Z,151.80
2019-03-23T11:35:33.967Z,155.23
2019-03-23T11:38:05.758Z,144.27
2019-03-23T11:40:37.480Z,151.13
2019-03-23T11:43:09.198Z,130.60
2019-03-23T11:45:40.619Z,156.30
2019-03-23T11:48:13.304Z,165.00
2019-03-23T11:50:44.696Z,150.12
2019-03-23T11:53:16.079Z,156.83
2019-03-23T11:55:47.835Z,149.32
2019-03-23T11:58:19.268Z,156.87
2019-03-23T12:00:51.035Z,161.27
2019-03-23T12:03:22.476Z,160.70
2019-03-23T12:05:53.866Z,146.60
2019-03-23T12:08:28.228Z,154.40
2019-03-23T12:11:03.045Z,139.90
2019-03-23T12:13:32.915Z,144.67
2019-03-23T12:16:04.504Z,144.60
2019-03-23T12:18:35.996Z,145.37
2019-03-23T12:21:07.756Z,143.20
2019-03-23T12:23:39.458Z,140.53
2019-03-23T12:26:10.820Z,129.27
2019-03-23T12:28:42.523Z,133.00
2019-03-23T12:31:14.235Z,131.60
2019-03-23T12:33:45.641Z,125.33
2019-03-23T12:36:17.688Z,129.63
2019-03-23T12:38:49.352Z,113.63
2019-03-23T12:41:23.390Z,108.20
2019-03-23T12:43:54.114Z,116.47
2019-03-23T12:46:25.958Z,102.43
2019-03-23T12:48:57.624Z,102.30
2019-03-23T12:51:29.038Z,99.40
2019-03-23T12:54:00.524Z,105.30
2019-03-23T12:56:31.919Z,93.40
2019-03-23T12:59:03.570Z,103.20
2019-03-23T13:01:35.252Z,94.87
2019-03-23T13:04:06.920Z,90.27
2019-03-23T13:06:38.334Z,92.73
2019-03-23T13:09:10.069Z,96.97
2019-03-23T13:11:41.538Z,94.30
2019-03-23T13:14:13.410Z,93.00
2019-03-23T13:16:44.880Z,92.37
2019-03-23T13:19:16.367Z,144.77
2019-03-23T13:21:47.793Z,84.92
2019-03-23T13:24:19.484Z,87.55
2019-03-23T13:26:50.859Z,86.10
2019-03-23T13:29:22.241Z,78.50
2019-03-23T13:31:53.735Z,80.97
2019-03-23T13:34:25.399Z,80.73
2019-03-23T13:36:56.867Z,76.53
2019-03-23T13:39:28.583Z,84.93
2019-03-23T13:42:00.322Z,88.33
2019-03-23T13:44:31.994Z,87.13
2019-03-23T13:47:03.692Z,83.17
2019-03-23T13:49:35.077Z,81.87
2019-03-23T13:52:06.656Z,78.23
2019-03-23T13:54:38.058Z,73.00
2019-03-23T13:57:10.519Z,76.40
2019-03-23T13:59:41.885Z,76.37
2019-03-23T14:02:13.565Z,73.70
2019-03-23T14:04:44.943Z,76.30
2019-03-23T14:07:16.372Z,74.90
2019-03-23T14:09:48.067Z,72.87
2019-03-23T14:12:19.483Z,76.20
2019-03-23T14:14:50.946Z,72.63
2019-03-23T14:17:23.391Z,67.75
2019-03-23T14:19:55.676Z,81.80
2019-03-23T14:22:27.127Z,75.80
2019-03-23T14:24:58.555Z,75.77
2019-03-23T14:27:30.427Z,78.60
2019-03-23T14:30:01.821Z,73.83
2019-03-23T14:32:33.475Z,84.00
2019-03-23T14:35:05.808Z,75.00
2019-03-23T14:37:37.578Z,80.03
2019-03-23T14:40:09.318Z,84.83
2019-03-23T14:42:40.739Z,82.70
2019-03-23T14:45:12.213Z,88.93
2019-03-23T14:47:43.612Z,98.07
2019-03-23T14:50:15.349Z,92.17
2019-03-23T14:52:46.720Z,93.57
2019-03-23T14:55:18.108Z,93.77
2019-03-23T14:57:51.566Z,102.80
2019-03-23T15:00:30.395Z,95.93
2019-03-23T15:03:01.796Z,98.57
2019-03-23T15:05:34.752Z,91.10
2019-03-23T15:08:06.130Z,95.67
2019-03-23T15:10:38.274Z,98.92
2019-03-23T15:13:09.631Z,94.97
2019-03-23T15:15:41.284Z,92.02
2019-03-23T15:18:13.139Z,97.80
2019-03-23T15:20:44.940Z,94.03
2019-03-23T15:23:16.329Z,100.00
2019-03-23T15:25:47.799Z,96.17
2019-03-23T15:28:19.478Z,92.25
2019-03-23T15:30:50.960Z,91.95
2019-03-23T15:33:22.579Z,95.00
2019-03-23T15:35:54.058Z,92.73
2019-03-23T15:38:26.835Z,93.77
2019-03-23T15:40:59.070Z,87.23
2019-03-23T15:43:30.451Z,95.17
2019-03-23T15:46:02.408Z,91.13
2019-03-23T15:48:33.902Z,95.63
2019-03-23T15:51:05.723Z,93.63
2019-03-23T15:53:37.683Z,84.57
2019-03-23T15:56:10.623Z,81.77
2019-03-23T15:58:42.491Z,92.20
2019-03-23T16:01:15.333Z,87.07
2019-03-23T16:03:47.189Z,97.27
2019-03-23T16:06:19.436Z,97.50
2019-03-23T16:08:50.855Z,91.77
2019-03-23T16:11:22.514Z,96.23
2019-03-23T16:13:54.352Z,94.97
2019-03-23T16:16:25.999Z,92.55
2019-03-23T16:18:57.720Z,89.72
2019-03-23T16:21:29.097Z,93.13
2019-03-23T16:24:00.465Z,87.87
2019-03-23T16:26:31.878Z,92.17
2019-03-23T16:29:03.280Z,91.70
2019-03-23T16:31:34.668Z,109.37
2019-03-23T16:34:06.366Z,91.80
2019-03-23T16:36:38.257Z,91.10
2019-03-23T16:39:10.300Z,92.90
2019-03-23T16:41:41.674Z,92.53
2019-03-23T16:44:13.165Z,94.53
2019-03-23T16:46:44.589Z,93.70
2019-03-23T16:49:15.977Z,100.95
2019-03-23T16:51:47.876Z,89.07
2019-03-23T16:54:19.243Z,95.70
2019-03-23T16:56:50.650Z,96.97
2019-03-23T16:59:22.024Z,94.57
2019-03-23T17:01:53.904Z,96.42
2019-03-23T17:04:25.641Z,93.50
2019-03-23T17:06:57.086Z,93.22
2019-03-23T17:09:29.105Z,83.50
2019-03-23T17:12:00.577Z,94.58
2019-03-23T17:14:31.969Z,91.17
2019-03-23T17:17:03.393Z,87.80
2019-03-23T17:19:35.795Z,96.50
2019-03-23T17:22:07.218Z,90.20
2019-03-23T17:24:38.679Z,92.03
2019-03-23T17:27:10.973Z,91.70
2019-03-23T17:29:42.825Z,96.83
2019-03-23T17:32:14.501Z,94.77
2019-03-23T17:34:45.860Z,87.27
2019-03-23T17:37:17.254Z,86.47
2019-03-23T17:39:48.614Z,92.03
2019-03-23T17:42:20.108Z,83.33
2019-03-23T17:44:52.176Z,84.67
2019-03-23T17:47:23.653Z,84.03
2019-03-23T17:49:57.268Z,83.33
2019-03-23T17:52:29.026Z,92.63
2019-03-23T17:55:00.825Z,95.63
2019-03-23T17:57:33.930Z,101.37
2019-03-23T18:00:06.869Z,89.17
2019-03-23T18:02:39.510Z,95.60
2019-03-23T18:05:12.413Z,82.10
2019-03-23T18:07:43.835Z,93.47
2019-03-23T18:10:15.480Z,95.03
2019-03-23T18:12:46.937Z,88.37
2019-03-23T18:15:18.712Z,95.55
2019-03-23T18:17:51.261Z,106.43
2019-03-23T18:20:22.777Z,97.87
2019-03-23T18:22:55.510Z,91.40
2019-03-23T18:25:27.007Z,94.80
2019-03-23T18:27:58.755Z,88.07
2019-03-23T18:30:35.944Z,96.83
2019-03-23T18:33:07.429Z,94.07
2019-03-23T18:35:39.028Z,97.53
2019-03-23T18:38:10.421Z,103.63
2019-03-23T18:40:41.924Z,97.13
2019-03-23T18:43:26.713Z,97.83
2019-03-23T18:45:50.682Z,109.10
2019-03-23T18:48:22.445Z,105.30
2019-03-23T18:50:54.381Z,94.97
2019-03-23T18:53:26.062Z,125.40
2019-03-23T18:55:57.453Z,121.20
2019-03-23T18:58:28.863Z,112.10
2019-03-23T19:01:00.241Z,122.13
2019-03-23T19:03:32.143Z,137.47
2019-03-23T19:06:03.583Z,138.67
2019-03-23T19:08:35.945Z,131.83
2019-03-23T19:11:07.589Z,137.97
2019-03-23T19:13:39.079Z,131.10
2019-03-23T19:16:10.466Z,138.40
2019-03-23T19:18:42.387Z,129.03
2019-03-23T19:21:14.798Z,124.27
2019-03-23T19:23:46.567Z,131.23
2019-03-23T19:26:18.619Z,122.30
2019-03-23T19:28:49.997Z,130.43
2019-03-23T19:31:21.581Z,115.30
2019-03-23T19:33:52.952Z,107.73
2019-03-23T19:36:24.454Z,92.53
2019-03-23T19:38:56.002Z,98.55
2019-03-23T19:41:28.367Z,100.80
2019-03-23T19:43:59.859Z,91.30
2019-03-23T19:46:31.246Z,88.90
2019-03-23T19:49:03.957Z,87.50
2019-03-23T19:51:35.617Z,88.03
2019-03-23T19:54:07.336Z,79.65
2019-03-23T19:56:39.149Z,77.63
2019-03-23T19:59:10.564Z,83.90
2019-03-23T20:01:41.917Z,73.63
2019-03-23T20:04:13.427Z,73.10
2019-03-23T20:06:45.147Z,77.13
2019-03-23T20:09:16.561Z,75.87
2019-03-23T20:11:48.156Z,74.80
2019-03-23T20:14:19.785Z,77.83
2019-03-23T20:16:51.400Z,68.85
2019-03-23T20:19:23.096Z,81.23
2019-03-23T20:21:54.659Z,82.83
2019-03-23T20:24:26.297Z,74.32
2019-03-23T20:26:58.247Z,75.60
2019-03-23T20:29:29.901Z,76.40
2019-03-23T20:32:01.495Z,74.67
2019-03-23T20:34:33.240Z,71.17
2019-03-23T20:37:05.237Z,68.50
2019-03-23T20:39:36.731Z,63.73
2019-03-23T20:42:08.084Z,67.10
2019-03-23T20:44:39.787Z,73.23
2019-03-23T20:47:11.720Z,71.77
2019-03-23T20:49:43.902Z,77.63
2019-03-23T20:52:15.949Z,67.37
2019-03-23T20:54:47.889Z,69.50
2019-03-23T20:57:23.745Z,66.00
2019-03-23T20:59:53.106Z,59.57
2019-03-23T21:02:24.481Z,69.50
2019-03-23T21:04:56.015Z,70.50
2019-03-23T21:07:27.472Z,58.00
2019-03-23T21:09:58.782Z,64.50
2019-03-23T21:12:30.478Z,54.90
2019-03-23T21:15:02.080Z,57.73
2019-03-23T21:17:33.449Z,54.93
2019-03-23T21:20:05.006Z,60.77
2019-03-23T21:22:36.879Z,59.63
2019-03-23T21:25:08.712Z,57.37
2019-03-23T21:27:40.109Z,56.67
2019-03-23T21:30:13.394Z,62.33
2019-03-23T21:32:45.253Z,53.40
2019-03-23T21:35:16.954Z,55.83
2019-03-23T21:37:48.337Z,55.20
2019-03-23T21:40:19.711Z,61.33
2019-03-23T21:42:51.863Z,53.70
2019-03-23T21:45:24.233Z,50.77
2019-03-23T21:47:58.036Z,58.17
2019-03-23T21:50:29.416Z,57.08
2019-03-23T21:53:01.529Z,51.27
2019-03-23T21:55:33.178Z,50.70
2019-03-23T21:58:05.999Z,56.50
2019-03-23T22:00:37.354Z,47.60
2019-03-23T22:03:08.940Z,55.40
2019-03-23T22:05:40.464Z,47.63
2019-03-23T22:08:12.080Z,71.33
2019-03-23T22:10:43.768Z,50.70
2019-03-23T22:13:15.586Z,55.88
2019-03-23T22:15:47.644Z,55.37
2019-03-23T22:18:18.992Z,55.20
2019-03-23T22:20:50.691Z,52.80
2019-03-23T22:23:22.297Z,49.87
2019-03-23T22:25:53.993Z,54.87
2019-03-23T22:28:25.857Z,50.63
2019-03-23T22:30:57.260Z,43.33
2019-03-23T22:33:28.875Z,42.30
2019-03-23T22:36:00.266Z,54.33
2019-03-23T22:38:32.150Z,46.67
2019-03-23T22:41:03.689Z,44.87
2019-03-23T22:43:35.072Z,47.20
2019-03-23T22:46:06.792Z,47.93
2019-03-23T22:48:38.175Z,43.23
2019-03-23T22:51:09.575Z,43.97
2019-03-23T22:53:40.953Z,50.83
2019-03-23T22:56:13.658Z,39.50
2019-03-23T22:58:45.601Z,41.97
2019-03-23T23:01:17.128Z,49.00
2019-03-23T23:03:49.545Z,46.65
2019-03-23T23:06:20.971Z,52.73
2019-03-23T23:08:52.335Z,55.93
2019-03-23T23:11:23.677Z,48.58
2019-03-23T23:13:55.306Z,44.97
2019-03-23T23:16:27.167Z,55.48
2019-03-23T23:18:58.822Z,55.30
2019-03-23T23:21:30.256Z,53.83
2019-03-23T23:24:02.179Z,47.73
2019-03-23T23:26:33.950Z,43.08
2019-03-23T23:29:05.365Z,45.38
2019-03-23T23:31:37.058Z,40.27
2019-03-23T23:34:08.431Z,46.57
2019-03-23T23:36:41.191Z,48.23
2019-03-23T23:39:12.869Z,39.63
2019-03-23T23:41:44.708Z,46.37
2019-03-23T23:44:17.319Z,43.90
2019-03-23T23:46:49.516Z,40.80
2019-03-23T23:49:21.257Z,47.17
2019-03-23T23:51:52.642Z,45.35
2019-03-23T23:54:24.293Z,37.88
2019-03-23T23:56:55.713Z,43.20
2019-03-23T23:59:27.869Z,38.13
